createdAt,value
2019-01-30T00:00:19.777Z,15.13
2019-01-30T00:04:24.008Z,15.23
2019-01-30T00:08:27.471Z,13.97
2019-01-30T00:12:30.941Z,12.27
2019-01-30T00:16:34.389Z,11.97
2019-01-30T00:20:37.857Z,13.80
2019-01-30T00:24:41.318Z,17.37
2019-01-30T00:28:44.783Z,13.13
2019-01-30T00:32:48.243Z,15.77
2019-01-30T00:36:51.699Z,12.47
2019-01-30T00:40:55.164Z,12.00
2019-01-30T00:44:58.630Z,12.67
2019-01-30T00:49:02.088Z,10.83
2019-01-30T00:53:06.516Z,10.53
2019-01-30T00:57:09.971Z,11.53
2019-01-30T01:01:13.429Z,15.40
2019-01-30T01:05:16.891Z,11.43
2019-01-30T01:09:20.340Z,12.77
2019-01-30T01:13:23.786Z,11.33
2019-01-30T01:17:27.240Z,13.87
2019-01-30T01:21:30.706Z,10.33
2019-01-30T01:25:34.181Z,13.33
2019-01-30T01:29:37.641Z,15.23
2019-01-30T01:33:41.090Z,14.90
2019-01-30T01:37:44.548Z,15.93
2019-01-30T01:41:48.003Z,18.20
2019-01-30T01:45:51.551Z,14.07
2019-01-30T01:49:54.987Z,13.87
2019-01-30T01:53:58.453Z,11.10
2019-01-30T01:58:01.911Z,8.50
2019-01-30T02:02:05.399Z,11.30
2019-01-30T02:06:09.794Z,10.07
2019-01-30T02:10:13.286Z,11.50
2019-01-30T02:14:16.802Z,9.80
2019-01-30T02:18:20.258Z,9.53
2019-01-30T02:22:23.709Z,9.17
2019-01-30T02:26:27.161Z,8.97
2019-01-30T02:30:30.603Z,7.63
2019-01-30T02:34:34.056Z,10.50
2019-01-30T02:38:37.520Z,10.67
2019-01-30T02:42:40.974Z,8.57
2019-01-30T02:46:44.429Z,12.63
2019-01-30T02:50:47.886Z,10.23
2019-01-30T02:54:51.325Z,8.90
2019-01-30T02:58:54.781Z,10.10
2019-01-30T03:02:58.247Z,12.93
2019-01-30T03:07:01.715Z,9.63
2019-01-30T03:11:05.165Z,12.20
2019-01-30T03:15:08.644Z,13.87
2019-01-30T03:19:12.093Z,13.47
2019-01-30T03:23:15.548Z,12.67
2019-01-30T03:27:18.996Z,10.83
2019-01-30T03:31:22.475Z,12.77
2019-01-30T03:35:25.925Z,16.47
2019-01-30T03:39:29.396Z,14.03
2019-01-30T03:43:32.848Z,11.67
2019-01-30T03:47:36.296Z,11.73
2019-01-30T03:51:39.766Z,12.83
2019-01-30T03:55:43.221Z,9.83
2019-01-30T03:59:46.671Z,11.43
2019-01-30T04:03:50.129Z,10.83
2019-01-30T04:07:53.584Z,13.37
2019-01-30T04:11:58.005Z,11.63
2019-01-30T04:16:01.461Z,11.13
2019-01-30T04:20:04.924Z,10.23
2019-01-30T04:24:08.368Z,13.17
2019-01-30T04:28:11.819Z,11.10
2019-01-30T04:32:15.276Z,11.50
2019-01-30T04:36:18.726Z,9.13
2019-01-30T04:40:22.176Z,10.60
2019-01-30T04:44:25.657Z,11.87
2019-01-30T04:48:29.077Z,14.77
2019-01-30T04:52:32.532Z,11.10
2019-01-30T04:56:35.988Z,14.07
2019-01-30T05:00:39.447Z,14.33
2019-01-30T05:04:42.972Z,10.23
2019-01-30T05:08:46.424Z,12.90
2019-01-30T05:12:49.879Z,12.53
2019-01-30T05:16:53.335Z,12.07
2019-01-30T05:20:56.799Z,11.83
2019-01-30T05:25:00.239Z,9.97
2019-01-30T05:29:03.693Z,9.83
2019-01-30T05:33:07.137Z,9.80
2019-01-30T05:37:10.597Z,14.10
2019-01-30T05:41:14.062Z,13.97
2019-01-30T05:45:17.514Z,9.83
2019-01-30T05:49:20.963Z,9.83
2019-01-30T05:53:24.417Z,11.73
2019-01-30T05:57:27.872Z,12.80
2019-01-30T06:01:31.309Z,9.13
2019-01-30T06:05:34.763Z,11.80
2019-01-30T06:09:38.221Z,11.73
2019-01-30T06:13:41.676Z,12.87
2019-01-30T06:17:45.138Z,12.77
2019-01-30T06:21:48.585Z,12.20
2019-01-30T06:25:52.051Z,11.40
2019-01-30T06:29:55.504Z,12.20
2019-01-30T06:33:58.959Z,14.63
2019-01-30T06:38:02.413Z,11.73
2019-01-30T06:42:05.863Z,11.70
2019-01-30T06:46:09.316Z,11.80
2019-01-30T06:50:12.780Z,12.50
2019-01-30T06:54:16.231Z,40.67
2019-01-30T06:58:19.677Z,15.57
2019-01-30T07:02:32.027Z,13.93
2019-01-30T07:06:28.298Z,16.20
2019-01-30T07:10:31.749Z,19.07
2019-01-30T07:14:35.207Z,17.53
2019-01-30T07:18:38.653Z,18.20
2019-01-30T07:22:42.116Z,15.67
2019-01-30T07:26:45.576Z,15.17
2019-01-30T07:30:49.035Z,16.97
2019-01-30T07:34:52.501Z,15.80
2019-01-30T07:38:55.935Z,19.20
2019-01-30T07:42:59.398Z,16.70
2019-01-30T07:47:02.863Z,17.37
2019-01-30T07:51:06.318Z,17.00
2019-01-30T07:55:09.776Z,18.40
2019-01-30T07:59:13.229Z,18.13
2019-01-30T08:03:16.681Z,15.77
2019-01-30T08:07:20.139Z,18.37
2019-01-30T08:11:23.596Z,16.27
2019-01-30T08:15:27.058Z,16.00
2019-01-30T08:19:30.503Z,17.03
2019-01-30T08:23:34.391Z,19.03
2019-01-30T08:27:39.153Z,17.27
2019-01-30T08:31:42.922Z,19.80
2019-01-30T08:35:46.446Z,18.20
2019-01-30T08:39:49.889Z,15.73
2019-01-30T08:43:53.353Z,16.43
2019-01-30T08:47:56.807Z,12.27
2019-01-30T08:52:00.272Z,15.57
2019-01-30T08:56:03.722Z,13.07
2019-01-30T09:00:07.176Z,13.77
2019-01-30T09:04:11.375Z,13.53
2019-01-30T09:08:14.954Z,17.03
2019-01-30T09:12:18.413Z,14.97
2019-01-30T09:16:21.862Z,14.87
2019-01-30T09:20:25.318Z,17.57
2019-01-30T09:24:28.780Z,18.90
2019-01-30T09:28:32.240Z,17.03
2019-01-30T09:32:35.692Z,18.17
2019-01-30T09:36:39.177Z,16.13
2019-01-30T09:40:42.631Z,17.43
2019-01-30T09:44:46.123Z,25.43
2019-01-30T09:48:49.640Z,19.23
2019-01-30T09:52:53.142Z,18.57
2019-01-30T09:56:57.640Z,20.37
2019-01-30T10:01:01.075Z,27.10
2019-01-30T10:05:04.539Z,20.07
2019-01-30T10:09:08.006Z,21.27
2019-01-30T10:13:11.483Z,20.40
2019-01-30T10:17:14.925Z,19.07
2019-01-30T10:21:18.383Z,19.93
2019-01-30T10:25:21.850Z,23.57
2019-01-30T10:29:25.317Z,23.00
2019-01-30T10:33:28.767Z,22.93
2019-01-30T10:37:32.236Z,24.33
2019-01-30T10:41:35.696Z,20.73
2019-01-30T10:45:39.162Z,19.03
2019-01-30T10:49:42.629Z,21.87
2019-01-30T10:53:48.107Z,20.87
2019-01-30T10:57:51.226Z,18.07
2019-01-30T11:01:54.686Z,23.37
2019-01-30T11:05:58.143Z,20.97
2019-01-30T11:10:01.604Z,18.67
2019-01-30T11:14:06.016Z,24.67
2019-01-30T11:18:09.488Z,20.57
2019-01-30T11:22:12.950Z,21.23
2019-01-30T11:26:16.424Z,19.37
2019-01-30T11:30:19.866Z,22.67
2019-01-30T11:34:23.323Z,17.33
2019-01-30T11:38:26.790Z,20.20
2019-01-30T11:42:30.241Z,23.97
2019-01-30T11:46:33.705Z,18.30
2019-01-30T11:50:37.148Z,16.40
2019-01-30T11:54:40.604Z,18.83
2019-01-30T11:58:44.059Z,18.70
2019-01-30T12:02:48.285Z,20.30
2019-01-30T12:06:51.847Z,21.17
2019-01-30T12:10:56.389Z,17.83
2019-01-30T12:14:59.841Z,15.53
2019-01-30T12:19:03.300Z,18.83
2019-01-30T12:23:06.761Z,13.83
2019-01-30T12:27:10.217Z,15.47
2019-01-30T12:31:13.666Z,14.77
2019-01-30T12:35:17.120Z,13.50
2019-01-30T12:39:20.583Z,18.03
2019-01-30T12:43:24.050Z,16.77
2019-01-30T12:47:27.504Z,18.47
2019-01-30T12:51:30.956Z,13.10
2019-01-30T12:55:34.431Z,12.80
2019-01-30T12:59:37.895Z,13.93
2019-01-30T13:03:41.349Z,13.83
2019-01-30T13:07:44.790Z,14.97
2019-01-30T13:11:48.268Z,14.30
2019-01-30T13:15:51.717Z,19.30
2019-01-30T13:19:55.184Z,16.07
2019-01-30T13:23:58.643Z,19.83
2019-01-30T13:28:02.085Z,15.83
2019-01-30T13:32:05.546Z,22.13
2019-01-30T13:36:08.999Z,16.90
2019-01-30T13:40:12.466Z,14.87
2019-01-30T13:44:15.927Z,11.63
2019-01-30T13:48:19.390Z,14.43
2019-01-30T13:52:22.879Z,13.97
2019-01-30T13:56:26.301Z,13.43
2019-01-30T14:00:29.786Z,28.50
2019-01-30T14:04:33.240Z,30.37
2019-01-30T14:08:36.693Z,32.40
2019-01-30T14:12:40.160Z,22.97
2019-01-30T14:16:43.678Z,20.33
2019-01-30T14:20:47.120Z,24.23
2019-01-30T14:24:50.567Z,14.73
2019-01-30T14:28:54.059Z,18.07
2019-01-30T14:32:57.498Z,15.87
2019-01-30T14:37:00.962Z,14.70
2019-01-30T14:41:04.430Z,16.30
2019-01-30T14:45:07.947Z,10.30
2019-01-30T14:49:11.451Z,9.03
2019-01-30T14:53:14.848Z,7.53
2019-01-30T14:57:18.305Z,6.43
2019-01-30T15:01:21.841Z,5.70
2019-01-30T15:05:25.321Z,5.37
2019-01-30T15:09:28.783Z,3.40
2019-01-30T15:13:32.234Z,3.37
2019-01-30T15:17:35.650Z,2.00
2019-01-30T15:21:39.112Z,2.77
2019-01-30T15:25:42.553Z,2.17
2019-01-30T15:29:46.002Z,1.87
2019-01-30T15:33:50.923Z,3.20
2019-01-30T15:37:54.401Z,2.07
2019-01-30T15:41:57.859Z,1.93
2019-01-30T15:46:01.299Z,1.60
2019-01-30T15:50:04.747Z,1.73
2019-01-30T15:54:08.206Z,2.63
2019-01-30T15:58:11.661Z,3.63
2019-01-30T16:02:15.112Z,2.43
2019-01-30T16:06:18.554Z,3.40
2019-01-30T16:10:22.020Z,4.53
2019-01-30T16:14:25.476Z,5.13
2019-01-30T16:18:28.940Z,2.50
2019-01-30T16:22:32.378Z,5.67
2019-01-30T16:26:35.839Z,5.63
2019-01-30T16:30:42.125Z,5.00
2019-01-30T16:34:44.441Z,11.47
2019-01-30T16:38:47.889Z,4.13
2019-01-30T16:42:54.235Z,4.80
2019-01-30T16:46:56.483Z,4.30
2019-01-30T16:50:59.943Z,6.27
2019-01-30T16:55:03.394Z,4.60
2019-01-30T16:59:06.863Z,4.03
2019-01-30T17:03:10.310Z,5.67
2019-01-30T17:07:13.764Z,5.70
2019-01-30T17:11:17.219Z,4.73
2019-01-30T17:15:20.666Z,5.70
2019-01-30T17:19:24.139Z,6.50
2019-01-30T17:23:27.595Z,10.30
2019-01-30T17:27:31.054Z,7.57
2019-01-30T17:31:34.510Z,6.60
2019-01-30T17:35:38.037Z,6.20
2019-01-30T17:39:41.471Z,15.97
2019-01-30T17:43:44.938Z,7.60
2019-01-30T17:47:48.384Z,7.17
2019-01-30T17:51:51.843Z,5.20
2019-01-30T17:55:55.299Z,5.67
2019-01-30T17:59:58.754Z,4.93
2019-01-30T18:04:02.196Z,5.63
2019-01-30T18:08:05.649Z,4.40
2019-01-30T18:12:09.105Z,4.47
2019-01-30T18:16:12.556Z,5.33
2019-01-30T18:20:15.995Z,4.90
2019-01-30T18:24:19.443Z,6.47
2019-01-30T18:28:22.891Z,5.40
2019-01-30T18:32:26.341Z,6.43
2019-01-30T18:36:40.327Z,5.47
2019-01-30T18:40:36.141Z,6.83
2019-01-30T18:44:40.604Z,11.70
2019-01-30T18:48:44.023Z,8.10
2019-01-30T18:52:47.479Z,8.20
2019-01-30T18:56:51.209Z,6.13
2019-01-30T19:00:54.646Z,7.37
2019-01-30T19:04:58.177Z,7.30
2019-01-30T19:09:02.601Z,5.33
2019-01-30T19:13:07.728Z,8.20
2019-01-30T19:17:11.179Z,6.87
2019-01-30T19:21:14.627Z,7.73
2019-01-30T19:25:18.069Z,6.00
2019-01-30T19:29:21.523Z,6.33
2019-01-30T19:33:24.970Z,7.17
2019-01-30T19:37:29.012Z,6.57
2019-01-30T19:41:32.472Z,7.17
2019-01-30T19:45:35.934Z,12.83
2019-01-30T19:49:39.379Z,7.03
2019-01-30T19:53:42.833Z,13.60
2019-01-30T19:57:47.255Z,17.17
2019-01-30T20:01:50.711Z,11.20
2019-01-30T20:05:54.178Z,13.07
2019-01-30T20:09:57.653Z,11.17
2019-01-30T20:14:01.118Z,10.43
2019-01-30T20:18:04.656Z,4.37
2019-01-30T20:22:08.087Z,2.77
2019-01-30T20:26:11.547Z,5.40
2019-01-30T20:30:15.002Z,4.97
2019-01-30T20:34:18.455Z,4.50
2019-01-30T20:38:21.900Z,4.17
2019-01-30T20:42:26.174Z,5.97
2019-01-30T20:46:29.624Z,8.90
2019-01-30T20:50:33.075Z,4.80
2019-01-30T20:54:37.601Z,4.73
2019-01-30T20:58:41.143Z,4.20
2019-01-30T21:02:44.570Z,6.33
2019-01-30T21:06:48.049Z,5.77
2019-01-30T21:10:51.499Z,8.43
2019-01-30T21:14:55.920Z,7.53
2019-01-30T21:18:59.352Z,5.50
2019-01-30T21:23:02.807Z,4.97
2019-01-30T21:27:06.257Z,11.37
2019-01-30T21:31:09.712Z,9.70
2019-01-30T21:35:13.164Z,9.93
2019-01-30T21:39:17.583Z,10.50
2019-01-30T21:43:21.105Z,8.73
2019-01-30T21:47:24.551Z,9.77
2019-01-30T21:51:28.004Z,6.67
2019-01-30T21:55:31.454Z,5.83
2019-01-30T21:59:34.901Z,8.40
2019-01-30T22:03:38.350Z,8.33
2019-01-30T22:07:41.902Z,6.70
2019-01-30T22:11:45.322Z,4.33
2019-01-30T22:15:48.775Z,4.37
2019-01-30T22:19:52.212Z,4.80
2019-01-30T22:24:05.362Z,4.73
2019-01-30T22:28:00.818Z,5.43
2019-01-30T22:32:04.268Z,4.87
2019-01-30T22:36:07.712Z,7.73
2019-01-30T22:40:12.133Z,7.17
2019-01-30T22:44:16.551Z,6.40
2019-01-30T22:48:20.005Z,6.20
2019-01-30T22:52:23.454Z,4.10
2019-01-30T22:56:26.895Z,12.80
2019-01-30T23:00:31.987Z,12.17
2019-01-30T23:04:35.617Z,12.80
2019-01-30T23:08:39.073Z,17.43
2019-01-30T23:12:42.527Z,20.10
2019-01-30T23:16:46.319Z,10.07
2019-01-30T23:20:49.774Z,3.57
2019-01-30T23:24:53.226Z,7.73
2019-01-30T23:28:56.681Z,13.83
2019-01-30T23:33:00.130Z,6.27
2019-01-30T23:37:03.571Z,9.83
2019-01-30T23:41:08.100Z,7.47
2019-01-30T23:45:11.548Z,5.53
2019-01-30T23:49:14.999Z,7.17
2019-01-30T23:53:18.446Z,3.10
2019-01-30T23:57:21.884Z,8.93
